sensor_id;sensor_type;location;lat;lon;timestamp;pressure;altitude;pressure_sealevel;temperature;humidity
52745;BME280;38637;49.984;20.426;2023-04-28T00:00:49;99847.94;;;2.17;86.33
52745;BME280;38637;49.984;20.426;2023-04-28T00:03:14;99849.47;;;2.26;86.28
52745;BME280;38637;49.984;20.426;2023-04-28T00:05:40;99849.72;;;2.31;85.92
52745;BME280;38637;49.984;20.426;2023-04-28T00:08:05;99846.81;;;2.33;86.53
52745;BME280;38637;49.984;20.426;2023-04-28T00:10:31;99851.38;;;2.32;86.65
52745;BME280;38637;49.984;20.426;2023-04-28T00:12:56;99842.22;;;2.26;86.88
52745;BME280;38637;49.984;20.426;2023-04-28T00:15:22;99839.53;;;2.26;87.33
52745;BME280;38637;49.984;20.426;2023-04-28T00:17:47;99844.47;;;2.23;86.94
52745;BME280;38637;49.984;20.426;2023-04-28T00:20:12;99839.91;;;2.23;87.30
52745;BME280;38637;49.984;20.426;2023-04-28T00:22:38;99842.28;;;2.33;87.48
52745;BME280;38637;49.984;20.426;2023-04-28T00:25:04;99842.94;;;2.42;86.45
52745;BME280;38637;49.984;20.426;2023-04-28T00:27:32;99846.94;;;2.46;85.91
52745;BME280;38637;49.984;20.426;2023-04-28T00:29:57;99846.09;;;2.45;86.01
52745;BME280;38637;49.984;20.426;2023-04-28T00:32:22;99849.03;;;2.50;86.28
52745;BME280;38637;49.984;20.426;2023-04-28T00:34:48;99845.34;;;2.58;85.89
52745;BME280;38637;49.984;20.426;2023-04-28T00:37:13;99847.03;;;2.66;85.94
52745;BME280;38637;49.984;20.426;2023-04-28T00:39:38;99857.44;;;2.69;85.92
52745;BME280;38637;49.984;20.426;2023-04-28T00:42:05;99845.22;;;2.73;85.69
52745;BME280;38637;49.984;20.426;2023-04-28T00:44:31;99849.59;;;2.74;85.72
52745;BME280;38637;49.984;20.426;2023-04-28T00:46:57;99848.78;;;2.80;85.46
52745;BME280;38637;49.984;20.426;2023-04-28T00:49:24;99845.28;;;2.86;85.02
52745;BME280;38637;49.984;20.426;2023-04-28T00:51:50;99846.56;;;2.90;85.31
52745;BME280;38637;49.984;20.426;2023-04-28T00:54:15;99842.88;;;2.98;84.87
52745;BME280;38637;49.984;20.426;2023-04-28T00:56:42;99846.81;;;3.02;85.16
52745;BME280;38637;49.984;20.426;2023-04-28T00:59:07;99837.66;;;2.96;84.50
52745;BME280;38637;49.984;20.426;2023-04-28T01:01:34;99837.72;;;3.03;84.71
52745;BME280;38637;49.984;20.426;2023-04-28T01:03:59;99836.66;;;3.04;84.25
52745;BME280;38637;49.984;20.426;2023-04-28T01:06:26;99840.00;;;3.06;84.27
52745;BME280;38637;49.984;20.426;2023-04-28T01:08:51;99844.59;;;3.12;84.20
52745;BME280;38637;49.984;20.426;2023-04-28T01:11:17;99843.16;;;3.16;84.39
52745;BME280;38637;49.984;20.426;2023-04-28T01:13:42;99849.59;;;3.22;84.51
52745;BME280;38637;49.984;20.426;2023-04-28T01:16:08;99842.13;;;3.24;84.95
52745;BME280;38637;49.984;20.426;2023-04-28T01:18:33;99846.94;;;3.29;84.84
52745;BME280;38637;49.984;20.426;2023-04-28T01:20:59;99860.22;;;3.30;84.99
52745;BME280;38637;49.984;20.426;2023-04-28T01:23:25;99850.63;;;3.21;85.35
52745;BME280;38637;49.984;20.426;2023-04-28T01:25:50;99856.25;;;3.19;85.81
52745;BME280;38637;49.984;20.426;2023-04-28T01:28:15;99853.31;;;3.21;85.53
52745;BME280;38637;49.984;20.426;2023-04-28T01:30:41;99846.69;;;3.23;85.35
52745;BME280;38637;49.984;20.426;2023-04-28T01:33:06;99846.50;;;3.25;85.51
52745;BME280;38637;49.984;20.426;2023-04-28T01:35:31;99850.69;;;3.28;85.55
52745;BME280;38637;49.984;20.426;2023-04-28T01:37:57;99847.34;;;3.26;85.79
52745;BME280;38637;49.984;20.426;2023-04-28T01:40:22;99839.44;;;3.24;86.16
52745;BME280;38637;49.984;20.426;2023-04-28T01:42:47;99854.81;;;3.30;85.83
52745;BME280;38637;49.984;20.426;2023-04-28T01:45:13;99857.75;;;3.35;86.33
52745;BME280;38637;49.984;20.426;2023-04-28T01:47:38;99856.69;;;3.36;86.02
52745;BME280;38637;49.984;20.426;2023-04-28T01:50:04;99853.38;;;3.34;86.57
52745;BME280;38637;49.984;20.426;2023-04-28T01:52:30;99853.16;;;3.36;86.59
52745;BME280;38637;49.984;20.426;2023-04-28T01:54:55;99852.16;;;3.43;86.34
52745;BME280;38637;49.984;20.426;2023-04-28T01:57:21;99860.69;;;3.47;86.32
52745;BME280;38637;49.984;20.426;2023-04-28T01:59:46;99860.91;;;3.52;85.87
52745;BME280;38637;49.984;20.426;2023-04-28T02:02:12;99852.59;;;3.54;85.79
52745;BME280;38637;49.984;20.426;2023-04-28T02:04:38;99851.78;;;3.53;85.42
52745;BME280;38637;49.984;20.426;2023-04-28T02:07:04;99853.44;;;3.54;85.64
52745;BME280;38637;49.984;20.426;2023-04-28T02:09:29;99853.03;;;3.57;86.03
52745;BME280;38637;49.984;20.426;2023-04-28T02:11:55;99853.84;;;3.58;85.51
52745;BME280;38637;49.984;20.426;2023-04-28T02:14:20;99847.22;;;3.60;86.55
52745;BME280;38637;49.984;20.426;2023-04-28T02:16:46;99854.50;;;3.60;85.59
52745;BME280;38637;49.984;20.426;2023-04-28T02:19:11;99859.88;;;3.53;86.20
52745;BME280;38637;49.984;20.426;2023-04-28T02:21:36;99870.84;;;3.45;86.18
52745;BME280;38637;49.984;20.426;2023-04-28T02:24:02;99852.16;;;3.43;86.08
52745;BME280;38637;49.984;20.426;2023-04-28T02:26:27;99857.34;;;3.45;86.53
52745;BME280;38637;49.984;20.426;2023-04-28T02:28:53;99852.16;;;3.43;86.50
52745;BME280;38637;49.984;20.426;2023-04-28T02:31:18;99853.00;;;3.44;86.74
52745;BME280;38637;49.984;20.426;2023-04-28T02:33:43;99863.41;;;3.54;86.34
52745;BME280;38637;49.984;20.426;2023-04-28T02:36:09;99859.25;;;3.51;86.71
52745;BME280;38637;49.984;20.426;2023-04-28T02:38:35;99857.81;;;3.55;87.09
52745;BME280;38637;49.984;20.426;2023-04-28T02:41:04;99851.56;;;3.55;86.67
52745;BME280;38637;49.984;20.426;2023-04-28T02:43:31;99862.81;;;3.65;87.06
52745;BME280;38637;49.984;20.426;2023-04-28T02:45:57;99863.44;;;3.67;86.75
52745;BME280;38637;49.984;20.426;2023-04-28T02:48:23;99857.84;;;3.68;86.84
52745;BME280;38637;49.984;20.426;2023-04-28T02:50:49;99859.28;;;3.64;86.75
52745;BME280;38637;49.984;20.426;2023-04-28T02:53:15;99860.13;;;3.72;86.96
52745;BME280;38637;49.984;20.426;2023-04-28T02:55:40;99858.88;;;3.74;86.91
52745;BME280;38637;49.984;20.426;2023-04-28T02:58:06;99862.19;;;3.76;86.69
52745;BME280;38637;49.984;20.426;2023-04-28T03:00:31;99864.28;;;3.74;85.85
52745;BME280;38637;49.984;20.426;2023-04-28T03:02:56;99860.13;;;3.72;85.84
52745;BME280;38637;49.984;20.426;2023-04-28T03:05:23;99860.94;;;3.72;86.22
52745;BME280;38637;49.984;20.426;2023-04-28T03:07:48;99863.88;;;3.71;86.32
52745;BME280;38637;49.984;20.426;2023-04-28T03:10:13;99853.06;;;3.71;86.23
52745;BME280;38637;49.984;20.426;2023-04-28T03:12:38;99850.78;;;3.67;86.50
52745;BME280;38637;49.984;20.426;2023-04-28T03:15:04;99849.31;;;3.65;86.10
52745;BME280;38637;49.984;20.426;2023-04-28T03:17:32;99856.38;;;3.66;86.65
52745;BME280;38637;49.984;20.426;2023-04-28T03:19:58;99858.44;;;3.64;85.91
52745;BME280;38637;49.984;20.426;2023-04-28T03:22:23;99855.72;;;3.57;86.72
52745;BME280;38637;49.984;20.426;2023-04-28T03:24:48;99855.31;;;3.54;86.10
52745;BME280;38637;49.984;20.426;2023-04-28T03:27:14;99849.06;;;3.53;86.02
52745;BME280;38637;49.984;20.426;2023-04-28T03:29:39;99846.38;;;3.47;86.30
52745;BME280;38637;49.984;20.426;2023-04-28T03:32:05;99850.31;;;3.44;85.95
52745;BME280;38637;49.984;20.426;2023-04-28T03:34:30;99844.06;;;3.43;85.58
52745;BME280;38637;49.984;20.426;2023-04-28T03:36:56;99847.19;;;3.40;86.32
52745;BME280;38637;49.984;20.426;2023-04-28T03:39:21;99856.69;;;3.36;86.51
52745;BME280;38637;49.984;20.426;2023-04-28T03:41:46;99850.47;;;3.36;86.44
52745;BME280;38637;49.984;20.426;2023-04-28T03:44:12;99855.88;;;3.36;86.09
52745;BME280;38637;49.984;20.426;2023-04-28T03:46:37;99860.03;;;3.32;86.70
52745;BME280;38637;49.984;20.426;2023-04-28T03:49:02;99867.06;;;3.33;86.74
52745;BME280;38637;49.984;20.426;2023-04-28T03:51:29;99852.75;;;3.32;86.42
52745;BME280;38637;49.984;20.426;2023-04-28T03:53:54;99870.84;;;3.45;86.25
52745;BME280;38637;49.984;20.426;2023-04-28T03:56:20;99862.56;;;3.53;85.99
52745;BME280;38637;49.984;20.426;2023-04-28T03:58:45;99854.91;;;3.63;85.52
52745;BME280;38637;49.984;20.426;2023-04-28T04:01:11;99860.34;;;3.77;85.12
52745;BME280;38637;49.984;20.426;2023-04-28T04:03:36;99857.44;;;3.91;85.37
52745;BME280;38637;49.984;20.426;2023-04-28T04:06:02;99855.78;;;4.04;85.47
52745;BME280;38637;49.984;20.426;2023-04-28T04:08:27;99861.22;;;4.17;84.21
52745;BME280;38637;49.984;20.426;2023-04-28T04:10:53;99864.13;;;4.29;83.98
52745;BME280;38637;49.984;20.426;2023-04-28T04:13:20;99861.81;;;4.39;83.72
52745;BME280;38637;49.984;20.426;2023-04-28T04:15:45;99865.13;;;4.54;83.24
52745;BME280;38637;49.984;20.426;2023-04-28T04:18:10;99867.22;;;4.66;82.01
52745;BME280;38637;49.984;20.426;2023-04-28T04:20:36;99865.31;;;4.73;82.22
52745;BME280;38637;49.984;20.426;2023-04-28T04:23:01;99865.28;;;4.86;81.60
52745;BME280;38637;49.984;20.426;2023-04-28T04:25:27;99857.97;;;5.00;81.09
52745;BME280;38637;49.984;20.426;2023-04-28T04:27:53;99868.34;;;5.10;80.46
52745;BME280;38637;49.984;20.426;2023-04-28T04:30:18;99864.53;;;5.17;79.90
52745;BME280;38637;49.984;20.426;2023-04-28T04:32:43;99861.22;;;5.22;80.13
52745;BME280;38637;49.984;20.426;2023-04-28T04:35:09;99863.69;;;5.30;79.68
52745;BME280;38637;49.984;20.426;2023-04-28T04:37:34;99859.09;;;5.30;79.36
52745;BME280;38637;49.984;20.426;2023-04-28T04:39:59;99872.81;;;5.29;79.60
52745;BME280;38637;49.984;20.426;2023-04-28T04:42:25;99861.59;;;5.25;79.56
52745;BME280;38637;49.984;20.426;2023-04-28T04:44:50;99864.38;;;5.12;78.60
52745;BME280;38637;49.984;20.426;2023-04-28T04:47:16;99866.47;;;5.03;78.87
52745;BME280;38637;49.984;20.426;2023-04-28T04:49:41;99871.28;;;4.95;78.74
52745;BME280;38637;49.984;20.426;2023-04-28T04:52:06;99858.78;;;5.00;78.42
52745;BME280;38637;49.984;20.426;2023-04-28T04:54:32;99861.00;;;5.17;79.15
52745;BME280;38637;49.984;20.426;2023-04-28T04:56:57;99864.50;;;5.30;79.21
52745;BME280;38637;49.984;20.426;2023-04-28T04:59:23;99861.97;;;5.42;78.59
52745;BME280;38637;49.984;20.426;2023-04-28T05:01:48;99867.50;;;5.61;78.88
52745;BME280;38637;49.984;20.426;2023-04-28T05:04:13;99858.84;;;5.77;78.05
52745;BME280;38637;49.984;20.426;2023-04-28T05:06:39;99856.47;;;5.87;78.01
52745;BME280;38637;49.984;20.426;2023-04-28T05:09:04;99869.09;;;6.07;78.00
52745;BME280;38637;49.984;20.426;2023-04-28T05:11:30;99855.44;;;6.20;77.32
52745;BME280;38637;49.984;20.426;2023-04-28T05:13:55;99860.72;;;6.33;76.57
52745;BME280;38637;49.984;20.426;2023-04-28T05:16:21;99849.41;;;6.43;76.21
52745;BME280;38637;49.984;20.426;2023-04-28T05:18:46;99858.28;;;6.50;74.79
52745;BME280;38637;49.984;20.426;2023-04-28T05:21:12;99854.31;;;6.53;73.61
52745;BME280;38637;49.984;20.426;2023-04-28T05:23:37;99860.88;;;6.63;74.53
52745;BME280;38637;49.984;20.426;2023-04-28T05:26:03;99854.94;;;6.73;73.44
52745;BME280;38637;49.984;20.426;2023-04-28T05:28:29;99861.13;;;6.80;72.88
52745;BME280;38637;49.984;20.426;2023-04-28T05:30:55;99859.91;;;6.95;73.09
52745;BME280;38637;49.984;20.426;2023-04-28T05:33:20;99861.06;;;7.05;71.50
52745;BME280;38637;49.984;20.426;2023-04-28T05:35:46;99857.44;;;7.11;70.91
52745;BME280;38637;49.984;20.426;2023-04-28T05:38:12;99848.84;;;7.14;70.39
52745;BME280;38637;49.984;20.426;2023-04-28T05:40:37;99855.38;;;7.25;70.91
52745;BME280;38637;49.984;20.426;2023-04-28T05:43:02;99848.91;;;7.26;70.41
52745;BME280;38637;49.984;20.426;2023-04-28T05:45:28;99861.69;;;7.37;70.98
52745;BME280;38637;49.984;20.426;2023-04-28T05:47:54;99861.75;;;7.49;70.77
52745;BME280;38637;49.984;20.426;2023-04-28T05:50:20;99870.34;;;7.65;69.91
52745;BME280;38637;49.984;20.426;2023-04-28T05:52:45;99865.19;;;7.75;70.17
52745;BME280;38637;49.984;20.426;2023-04-28T05:55:11;99860.84;;;7.86;69.79
52745;BME280;38637;49.984;20.426;2023-04-28T05:57:36;99868.69;;;7.94;69.39
52745;BME280;38637;49.984;20.426;2023-04-28T06:00:02;99863.59;;;7.97;69.03
52745;BME280;38637;49.984;20.426;2023-04-28T06:02:27;99863.84;;;8.07;68.51
52745;BME280;38637;49.984;20.426;2023-04-28T06:04:53;99859.97;;;8.15;67.81
52745;BME280;38637;49.984;20.426;2023-04-28T06:07:18;99856.47;;;8.26;66.77
52745;BME280;38637;49.984;20.426;2023-04-28T06:09:43;99870.16;;;8.32;65.42
52745;BME280;38637;49.984;20.426;2023-04-28T06:12:09;99868.41;;;8.37;65.08
52745;BME280;38637;49.984;20.426;2023-04-28T06:14:34;99862.41;;;8.47;65.72
52745;BME280;38637;49.984;20.426;2023-04-28T06:17:02;99866.78;;;8.60;66.16
52745;BME280;38637;49.984;20.426;2023-04-28T06:19:27;99872.97;;;8.67;64.55
52745;BME280;38637;49.984;20.426;2023-04-28T06:21:53;99865.16;;;8.70;63.16
52745;BME280;38637;49.984;20.426;2023-04-28T06:24:18;99873.31;;;8.82;63.26
52745;BME280;38637;49.984;20.426;2023-04-28T06:26:43;99857.66;;;8.89;63.46
52745;BME280;38637;49.984;20.426;2023-04-28T06:29:09;99859.69;;;8.94;64.04
52745;BME280;38637;49.984;20.426;2023-04-28T06:31:34;99866.91;;;9.00;64.11
52745;BME280;38637;49.984;20.426;2023-04-28T06:33:59;99859.91;;;9.04;63.74
52745;BME280;38637;49.984;20.426;2023-04-28T06:36:25;99861.91;;;9.09;63.64
52745;BME280;38637;49.984;20.426;2023-04-28T06:38:50;99854.91;;;9.13;63.72
52745;BME280;38637;49.984;20.426;2023-04-28T06:41:16;99861.66;;;9.10;63.88
52745;BME280;38637;49.984;20.426;2023-04-28T06:43:41;99853.50;;;9.10;64.98
52745;BME280;38637;49.984;20.426;2023-04-28T06:46:06;99849.22;;;9.14;64.99
52745;BME280;38637;49.984;20.426;2023-04-28T06:48:32;99853.13;;;9.18;64.16
52745;BME280;38637;49.984;20.426;2023-04-28T06:50:57;99846.00;;;9.17;64.44
52745;BME280;38637;49.984;20.426;2023-04-28T06:53:23;99849.66;;;9.23;64.33
52745;BME280;38637;49.984;20.426;2023-04-28T06:55:48;99847.88;;;9.29;63.74
52745;BME280;38637;49.984;20.426;2023-04-28T06:58:13;99855.81;;;9.30;62.80
52745;BME280;38637;49.984;20.426;2023-04-28T07:00:39;99851.28;;;9.36;63.22
52745;BME280;38637;49.984;20.426;2023-04-28T07:03:05;99842.47;;;9.46;64.00
52745;BME280;38637;49.984;20.426;2023-04-28T07:05:31;99848.31;;;9.49;62.99
52745;BME280;38637;49.984;20.426;2023-04-28T07:07:57;99841.03;;;9.55;63.36
52745;BME280;38637;49.984;20.426;2023-04-28T07:10:23;99837.91;;;9.63;63.03
52745;BME280;38637;49.984;20.426;2023-04-28T07:12:49;99838.47;;;9.77;62.93
52745;BME280;38637;49.984;20.426;2023-04-28T07:15:16;99834.25;;;9.86;60.77
52745;BME280;38637;49.984;20.426;2023-04-28T07:17:42;99843.59;;;9.90;58.56
52745;BME280;38637;49.984;20.426;2023-04-28T07:20:07;99836.84;;;9.93;58.86
52745;BME280;38637;49.984;20.426;2023-04-28T07:22:33;99842.13;;;9.99;58.72
52745;BME280;38637;49.984;20.426;2023-04-28T07:24:58;99830.56;;;10.09;57.70
52745;BME280;38637;49.984;20.426;2023-04-28T07:27:23;99837.53;;;10.17;56.31
52745;BME280;38637;49.984;20.426;2023-04-28T07:29:49;99831.97;;;10.28;57.46
52745;BME280;38637;49.984;20.426;2023-04-28T07:32:14;99836.94;;;10.31;54.59
52745;BME280;38637;49.984;20.426;2023-04-28T07:34:39;99823.66;;;10.35;55.18
52745;BME280;38637;49.984;20.426;2023-04-28T07:37:05;99814.19;;;10.43;55.70
52745;BME280;38637;49.984;20.426;2023-04-28T07:39:31;99814.28;;;10.48;51.27
52745;BME280;38637;49.984;20.426;2023-04-28T07:41:58;99810.88;;;10.57;51.39
52745;BME280;38637;49.984;20.426;2023-04-28T07:44:24;99813.75;;;10.68;50.49
52745;BME280;38637;49.984;20.426;2023-04-28T07:46:49;99809.25;;;10.78;48.31
52745;BME280;38637;49.984;20.426;2023-04-28T07:49:15;99808.34;;;10.90;48.26
52745;BME280;38637;49.984;20.426;2023-04-28T07:51:40;99812.78;;;10.96;47.33
52745;BME280;38637;49.984;20.426;2023-04-28T07:54:06;99809.09;;;11.07;47.11
52745;BME280;38637;49.984;20.426;2023-04-28T07:56:31;99812.22;;;11.16;47.06
52745;BME280;38637;49.984;20.426;2023-04-28T07:58:56;99808.97;;;11.19;47.02
52745;BME280;38637;49.984;20.426;2023-04-28T08:01:22;99805.22;;;11.25;45.80
52745;BME280;38637;49.984;20.426;2023-04-28T08:03:47;99788.13;;;11.13;41.39
52745;BME280;38637;49.984;20.426;2023-04-28T08:06:13;99803.56;;;11.24;40.80
52745;BME280;38637;49.984;20.426;2023-04-28T08:08:38;99805.78;;;11.27;41.91
52745;BME280;38637;49.984;20.426;2023-04-28T08:11:04;99804.28;;;11.41;42.25
52745;BME280;38637;49.984;20.426;2023-04-28T08:13:31;99806.56;;;11.49;42.79
52745;BME280;38637;49.984;20.426;2023-04-28T08:15:57;99797.84;;;11.53;41.19
52745;BME280;38637;49.984;20.426;2023-04-28T08:18:24;99799.56;;;11.59;41.70
52745;BME280;38637;49.984;20.426;2023-04-28T08:20:50;99798.53;;;11.65;42.21
52745;BME280;38637;49.984;20.426;2023-04-28T08:23:15;99789.56;;;11.69;42.56
52745;BME280;38637;49.984;20.426;2023-04-28T08:25:41;99789.00;;;11.67;41.07
52745;BME280;38637;49.984;20.426;2023-04-28T08:28:06;99787.13;;;11.73;42.19
52745;BME280;38637;49.984;20.426;2023-04-28T08:30:33;99784.13;;;11.74;41.71
52745;BME280;38637;49.984;20.426;2023-04-28T08:32:58;99785.28;;;11.79;41.44
52745;BME280;38637;49.984;20.426;2023-04-28T08:35:23;99780.31;;;11.76;38.87
52745;BME280;38637;49.984;20.426;2023-04-28T08:37:51;99780.88;;;11.78;39.76
52745;BME280;38637;49.984;20.426;2023-04-28T08:40:16;99774.88;;;11.81;39.85
52745;BME280;38637;49.984;20.426;2023-04-28T08:42:42;99774.63;;;11.82;39.16
52745;BME280;38637;49.984;20.426;2023-04-28T08:45:12;99773.63;;;11.88;39.55
52745;BME280;38637;49.984;20.426;2023-04-28T08:47:38;99773.63;;;11.88;38.10
52745;BME280;38637;49.984;20.426;2023-04-28T08:50:11;99766.47;;;11.87;37.73
52745;BME280;38637;49.984;20.426;2023-04-28T08:52:37;99764.38;;;11.94;38.96
52745;BME280;38637;49.984;20.426;2023-04-28T08:55:06;99760.59;;;12.01;39.02
52745;BME280;38637;49.984;20.426;2023-04-28T08:57:36;99768.53;;;12.02;39.02
52745;BME280;38637;49.984;20.426;2023-04-28T09:00:03;99756.97;;;11.95;39.02
52745;BME280;38637;49.984;20.426;2023-04-28T09:02:29;99756.47;;;11.98;39.88
52745;BME280;38637;49.984;20.426;2023-04-28T09:04:54;99763.56;;;11.99;39.80
52745;BME280;38637;49.984;20.426;2023-04-28T09:07:19;99764.16;;;12.01;40.12
52745;BME280;38637;49.984;20.426;2023-04-28T09:09:45;99763.31;;;12.01;39.79
52745;BME280;38637;49.984;20.426;2023-04-28T09:12:10;99763.56;;;11.99;40.21
52745;BME280;38637;49.984;20.426;2023-04-28T09:14:37;99760.84;;;11.99;39.38
52745;BME280;38637;49.984;20.426;2023-04-28T09:17:09;99755.13;;;12.01;39.60
52745;BME280;38637;49.984;20.426;2023-04-28T09:19:36;99743.06;;;12.02;38.97
52745;BME280;38637;49.984;20.426;2023-04-28T09:22:03;99751.63;;;12.10;39.64
52745;BME280;38637;49.984;20.426;2023-04-28T09:24:35;99745.63;;;12.13;39.52
52745;BME280;38637;49.984;20.426;2023-04-28T09:27:05;99738.81;;;12.16;39.16
52745;BME280;38637;49.984;20.426;2023-04-28T09:29:32;99734.72;;;12.18;38.57
52745;BME280;38637;49.984;20.426;2023-04-28T09:32:30;99728.72;;;12.27;40.30
52745;BME280;38637;49.984;20.426;2023-04-28T09:34:55;99737.56;;;12.34;39.23
52745;BME280;38637;49.984;20.426;2023-04-28T09:37:22;99725.81;;;12.38;38.97
52745;BME280;38637;49.984;20.426;2023-04-28T09:39:50;99725.03;;;12.43;39.36
52745;BME280;38637;49.984;20.426;2023-04-28T09:45:01;99720.91;;;12.46;37.74
52745;BME280;38637;49.984;20.426;2023-04-28T09:47:28;99710.47;;;12.42;36.97
52745;BME280;38637;49.984;20.426;2023-04-28T09:49:57;99712.69;;;12.40;36.76
52745;BME280;38637;49.984;20.426;2023-04-28T09:52:24;99704.41;;;12.35;36.50
52745;BME280;38637;49.984;20.426;2023-04-28T09:54:50;99706.91;;;12.42;37.16
52745;BME280;38637;49.984;20.426;2023-04-28T09:57:16;99709.06;;;12.35;36.19
52745;BME280;38637;49.984;20.426;2023-04-28T10:02:09;99702.59;;;12.51;37.63
52745;BME280;38637;49.984;20.426;2023-04-28T10:04:34;99699.03;;;12.51;37.33
52745;BME280;38637;49.984;20.426;2023-04-28T10:07:00;99690.81;;;12.51;36.66
52745;BME280;38637;49.984;20.426;2023-04-28T10:09:26;99692.47;;;12.57;37.58
52745;BME280;38637;49.984;20.426;2023-04-28T10:11:52;99684.53;;;12.60;38.32
52745;BME280;38637;49.984;20.426;2023-04-28T10:14:18;99685.69;;;12.64;37.89
52745;BME280;38637;49.984;20.426;2023-04-28T10:16:44;99680.19;;;12.70;38.16
52745;BME280;38637;49.984;20.426;2023-04-28T10:19:11;99675.81;;;12.69;37.75
52745;BME280;38637;49.984;20.426;2023-04-28T10:21:43;99685.69;;;12.70;37.76
52745;BME280;38637;49.984;20.426;2023-04-28T10:24:14;99687.63;;;12.74;37.10
52745;BME280;38637;49.984;20.426;2023-04-28T10:27:01;99679.94;;;12.71;37.25
52745;BME280;38637;49.984;20.426;2023-04-28T10:29:29;99673.38;;;12.82;37.65
52745;BME280;38637;49.984;20.426;2023-04-28T10:32:19;99677.25;;;12.86;37.98
52745;BME280;38637;49.984;20.426;2023-04-28T10:34:45;99666.84;;;12.94;36.88
52745;BME280;38637;49.984;20.426;2023-04-28T10:37:11;99671.53;;;12.98;37.53
52745;BME280;38637;49.984;20.426;2023-04-28T10:39:39;99663.59;;;13.02;37.32
52745;BME280;38637;49.984;20.426;2023-04-28T10:45:08;99661.69;;;13.02;37.36
52745;BME280;38637;49.984;20.426;2023-04-28T10:47:59;99650.41;;;13.04;36.84
52745;BME280;38637;49.984;20.426;2023-04-28T10:50:30;99647.69;;;13.04;36.48
52745;BME280;38637;49.984;20.426;2023-04-28T10:52:55;99643.06;;;13.04;36.22
52745;BME280;38637;49.984;20.426;2023-04-28T11:00:42;99637.91;;;13.28;37.25
52745;BME280;38637;49.984;20.426;2023-04-28T11:06:22;99631.31;;;13.40;37.74
52745;BME280;38637;49.984;20.426;2023-04-28T11:08:53;99620.59;;;13.43;37.78
52745;BME280;38637;49.984;20.426;2023-04-28T11:11:27;99623.66;;;13.47;38.49
52745;BME280;38637;49.984;20.426;2023-04-28T11:16:52;99602.22;;;13.49;36.92
52745;BME280;38637;49.984;20.426;2023-04-28T11:19:22;99608.28;;;13.51;38.22
52745;BME280;38637;49.984;20.426;2023-04-28T11:21:49;99611.03;;;13.56;37.73
52745;BME280;38637;49.984;20.426;2023-04-28T11:24:14;99602.25;;;13.59;38.20
52745;BME280;38637;49.984;20.426;2023-04-28T11:26:40;99603.91;;;13.50;36.55
52745;BME280;38637;49.984;20.426;2023-04-28T11:29:06;99597.84;;;13.58;37.43
52745;BME280;38637;49.984;20.426;2023-04-28T11:31:32;99598.66;;;13.64;37.50
52745;BME280;38637;49.984;20.426;2023-04-28T11:34:02;99598.38;;;13.70;37.19
52745;BME280;38637;49.984;20.426;2023-04-28T11:36:39;99605.53;;;13.71;36.56
52745;BME280;38637;49.984;20.426;2023-04-28T11:39:06;99591.53;;;13.63;35.25
52745;BME280;38637;49.984;20.426;2023-04-28T11:41:52;99596.75;;;13.69;36.36
52745;BME280;38637;49.984;20.426;2023-04-28T11:44:19;99595.63;;;13.70;34.82
52745;BME280;38637;49.984;20.426;2023-04-28T11:46:50;99597.81;;;13.73;34.96
52745;BME280;38637;49.984;20.426;2023-04-28T11:49:22;99594.00;;;13.74;34.21
52745;BME280;38637;49.984;20.426;2023-04-28T11:51:52;99597.00;;;13.73;34.48
52745;BME280;38637;49.984;20.426;2023-04-28T11:54:23;99582.47;;;13.72;34.00
52745;BME280;38637;49.984;20.426;2023-04-28T11:56:50;99578.09;;;13.71;34.44
52745;BME280;38637;49.984;20.426;2023-04-28T11:59:16;99572.84;;;13.70;34.81
52745;BME280;38637;49.984;20.426;2023-04-28T12:01:45;99572.31;;;13.78;36.06
52745;BME280;38637;49.984;20.426;2023-04-28T12:04:11;99572.28;;;13.83;34.98
52745;BME280;38637;49.984;20.426;2023-04-28T12:06:38;99572.56;;;13.87;33.12
52745;BME280;38637;49.984;20.426;2023-04-28T12:09:17;99569.81;;;13.87;34.28
52745;BME280;38637;49.984;20.426;2023-04-28T12:12:00;99561.00;;;13.95;35.67
52745;BME280;38637;49.984;20.426;2023-04-28T12:14:27;99554.13;;;13.97;34.61
52745;BME280;38637;49.984;20.426;2023-04-28T12:16:52;99554.13;;;13.97;33.96
52745;BME280;38637;49.984;20.426;2023-04-28T12:19:18;99543.16;;;13.92;33.68
52745;BME280;38637;49.984;20.426;2023-04-28T12:21:58;99542.56;;;14.00;34.41
52745;BME280;38637;49.984;20.426;2023-04-28T12:24:24;99547.25;;;14.00;34.92
52745;BME280;38637;49.984;20.426;2023-04-28T12:26:50;99548.31;;;14.04;34.69
52745;BME280;38637;49.984;20.426;2023-04-28T12:29:35;99541.19;;;14.03;35.87
52745;BME280;38637;49.984;20.426;2023-04-28T12:32:02;99542.03;;;14.03;35.07
52745;BME280;38637;49.984;20.426;2023-04-28T12:34:28;99540.63;;;14.06;36.25
52745;BME280;38637;49.984;20.426;2023-04-28T12:36:55;99527.16;;;14.15;35.85
52745;BME280;38637;49.984;20.426;2023-04-28T12:39:20;99527.41;;;14.18;36.93
52745;BME280;38637;49.984;20.426;2023-04-28T12:41:47;99520.50;;;14.26;36.49
52745;BME280;38637;49.984;20.426;2023-04-28T12:44:13;99512.78;;;14.33;36.77
52745;BME280;38637;49.984;20.426;2023-04-28T12:46:40;99504.25;;;14.35;36.50
52745;BME280;38637;49.984;20.426;2023-04-28T12:49:05;99503.97;;;14.36;36.38
52745;BME280;38637;49.984;20.426;2023-04-28T12:51:31;99503.41;;;14.39;35.87
52745;BME280;38637;49.984;20.426;2023-04-28T12:53:59;99505.34;;;14.39;35.15
52745;BME280;38637;49.984;20.426;2023-04-28T12:56:24;99498.19;;;14.38;35.40
52745;BME280;38637;49.984;20.426;2023-04-28T12:58:50;99496.56;;;14.37;34.85
52745;BME280;38637;49.984;20.426;2023-04-28T13:01:15;99491.06;;;14.32;34.13
52745;BME280;38637;49.984;20.426;2023-04-28T13:03:40;99485.59;;;14.32;34.51
52745;BME280;38637;49.984;20.426;2023-04-28T13:06:08;99486.09;;;14.39;34.42
52745;BME280;38637;49.984;20.426;2023-04-28T13:08:34;99491.56;;;14.44;35.80
52745;BME280;38637;49.984;20.426;2023-04-28T13:11:00;99475.63;;;14.41;33.86